Time;durP1;ratioP1;P1;durP2;ratioP2;P2;SDS_P1;SDS_P2;PMS_P1;PMS_P2;Temp;Humidity;BMP_temperature;BMP_pressure;BME280_temperature;BME280_humidity;BME280_pressure;Samples;Min_cycle;Max_cycle;Signal;HPM_P1;HPM_P2
2023/04/04 00:00:34;;;;;;;13.20;6.63;;;0.90;1.00;;;;;;5047083;28;20817;-70
2023/04/04 00:03:01;;;;;;;14.23;8.10;;;1.00;1.00;;;;;;5044835;28;20238;-70
2023/04/04 00:05:28;;;;;;;61.63;26.70;;;0.90;1.00;;;;;;5045526;28;20192;-70
2023/04/04 00:07:56;;;;;;;101.30;44.37;;;0.90;1.00;;;;;;5044609;28;20196;-70
2023/04/04 00:10:23;;;;;;;61.47;26.60;;;0.80;1.00;;;;;;5040657;28;20203;-70
2023/04/04 00:12:50;;;;;;;52.30;24.33;;;0.80;1.00;;;;;;5061591;28;20698;-70
2023/04/04 00:15:17;;;;;;;24.53;10.77;;;0.70;1.00;;;;;;5044269;28;20223;-70
2023/04/04 00:17:44;;;;;;;96.70;38.00;;;0.60;1.00;;;;;;5048862;28;20196;-70
2023/04/04 00:20:11;;;;;;;96.70;40.93;;;0.60;1.00;;;;;;5048387;28;20192;-70
2023/04/04 00:22:38;;;;;;;64.30;30.20;;;0.60;1.00;;;;;;5065288;28;20215;-70
2023/04/04 00:25:05;;;;;;;83.50;38.97;;;0.60;1.00;;;;;;5050113;28;20192;-71
2023/04/04 00:27:32;;;;;;;71.07;33.57;;;0.50;1.00;;;;;;5065958;28;20721;-70
2023/04/04 00:29:59;;;;;;;27.30;11.23;;;0.50;1.00;;;;;;5048483;28;20310;-71
2023/04/04 00:32:26;;;;;;;35.27;15.93;;;0.50;1.00;;;;;;5047846;28;20558;-71
2023/04/04 00:34:55;;;;;;;57.93;27.40;;;0.40;1.00;;;;;;5050003;28;20196;-71
2023/04/04 00:37:22;;;;;;;48.97;23.90;;;0.40;1.00;;;;;;5030106;28;20756;-70
2023/04/04 00:39:49;;;;;;;33.37;17.50;;;0.40;1.00;;;;;;5048626;28;20191;-70
2023/04/04 00:42:16;;;;;;;39.83;18.27;;;0.40;1.00;;;;;;5048610;28;20208;-71
2023/04/04 00:44:44;;;;;;;15.40;8.73;;;0.40;1.00;;;;;;5030654;28;20192;-71
2023/04/04 00:47:12;;;;;;;9.73;4.43;;;0.30;1.00;;;;;;5048048;28;20195;-70
2023/04/04 00:49:39;;;;;;;9.97;4.10;;;0.40;1.00;;;;;;5047160;28;20234;-70
2023/04/04 00:52:06;;;;;;;6.17;3.60;;;0.30;1.00;;;;;;5046489;28;20196;-71
2023/04/04 00:54:34;;;;;;;10.10;5.17;;;0.30;1.00;;;;;;5048333;28;20191;-71
2023/04/04 00:57:04;;;;;;;9.27;5.43;;;0.30;1.00;;;;;;5048661;28;20210;-71
2023/04/04 00:59:31;;;;;;;7.67;4.73;;;0.30;1.00;;;;;;5049973;28;20195;-71
2023/04/04 01:01:59;;;;;;;10.67;5.57;;;0.20;1.00;;;;;;5047847;28;20592;-68
2023/04/04 01:04:30;;;;;;;11.07;4.87;;;0.10;1.00;;;;;;5047184;28;20227;-68
2023/04/04 01:06:58;;;;;;;13.37;4.53;;;0.20;1.00;;;;;;5040864;28;20215;-69
2023/04/04 01:09:26;;;;;;;9.93;3.67;;;0.20;1.00;;;;;;5047473;28;20230;-68
2023/04/04 01:11:55;;;;;;;5.73;3.47;;;0.20;1.00;;;;;;5047704;28;20274;-70
2023/04/04 01:14:24;;;;;;;6.87;3.73;;;0.10;1.00;;;;;;5044240;28;20643;-68
2023/04/04 01:16:51;;;;;;;9.03;3.90;;;0.00;1.00;;;;;;5038448;28;20219;-69
2023/04/04 01:19:32;;;;;;;6.63;4.47;;;-0.10;1.00;;;;;;5047724;28;20198;-68
2023/04/04 01:22:04;;;;;;;13.23;4.67;;;-0.10;1.00;;;;;;5048008;28;20303;-69
2023/04/04 01:24:34;;;;;;;13.20;6.17;;;-0.20;1.00;;;;;;5056743;28;20269;-68
2023/04/04 01:27:04;;;;;;;14.17;7.37;;;-0.20;1.00;;;;;;5045945;28;20196;-70
2023/04/04 01:29:35;;;;;;;8.57;5.23;;;-0.20;1.00;;;;;;5047539;28;20728;-70
2023/04/04 01:32:11;;;;;;;7.67;5.53;;;-0.30;1.00;;;;;;5047695;28;20192;-70
2023/04/04 01:35:08;;;;;;;9.53;4.80;;;-0.20;1.00;;;;;;5058661;28;20204;-69
2023/04/04 01:37:46;;;;;;;7.27;4.10;;;-0.10;1.00;;;;;;5030869;28;20199;-68
2023/04/04 01:40:22;;;;;;;8.67;4.07;;;-0.20;1.00;;;;;;5046105;28;20195;-68
2023/04/04 01:42:52;;;;;;;8.33;3.57;;;-0.20;1.00;;;;;;5020202;28;20199;-67
2023/04/04 01:45:21;;;;;;;5.17;3.30;;;-0.30;1.00;;;;;;5044432;28;20215;-68
2023/04/04 01:47:49;;;;;;;4.53;2.97;;;-0.40;1.00;;;;;;5045624;28;20199;-68
2023/04/04 01:50:20;;;;;;;8.07;3.00;;;-0.40;1.00;;;;;;5043420;28;20690;-67
2023/04/04 01:52:48;;;;;;;6.03;3.53;;;-0.40;1.00;;;;;;5041844;28;20659;-68
2023/04/04 01:55:15;;;;;;;4.90;3.10;;;-0.30;1.00;;;;;;5046961;28;20234;-70
2023/04/04 01:57:42;;;;;;;7.33;3.87;;;-0.30;1.00;;;;;;5046372;28;20200;-72
2023/04/04 02:00:10;;;;;;;5.90;3.10;;;-0.30;1.00;;;;;;5056366;28;20200;-69
2023/04/04 02:02:46;;;;;;;6.07;3.57;;;-0.30;1.00;;;;;;5045586;28;20254;-65
2023/04/04 02:05:13;;;;;;;6.07;3.00;;;-0.30;1.00;;;;;;5045248;28;20208;-67
2023/04/04 02:07:40;;;;;;;5.07;3.10;;;-0.30;1.00;;;;;;5044867;28;20275;-69
2023/04/04 02:10:19;;;;;;;3.43;2.70;;;-0.50;1.00;;;;;;5044684;28;20222;-67
2023/04/04 02:12:47;;;;;;;5.27;3.27;;;-0.50;1.00;;;;;;5030782;28;20234;-67
2023/04/04 02:15:14;;;;;;;6.93;3.37;;;-0.50;1.00;;;;;;5046111;28;20215;-69
2023/04/04 02:17:47;;;;;;;4.87;3.30;;;-0.40;1.00;;;;;;5029114;28;20199;-68
2023/04/04 02:20:17;;;;;;;5.43;3.17;;;-0.50;1.00;;;;;;5044605;28;20562;-71
2023/04/04 02:22:55;;;;;;;6.23;4.40;;;-0.50;1.00;;;;;;5045362;28;20212;-68
2023/04/04 02:25:23;;;;;;;7.83;3.87;;;-0.60;1.00;;;;;;5028581;28;20226;-69
2023/04/04 02:27:50;;;;;;;8.57;5.80;;;-0.60;1.00;;;;;;5046537;28;20646;-68
2023/04/04 02:30:18;;;;;;;10.07;4.33;;;-0.60;1.00;;;;;;5047844;28;20230;-69
2023/04/04 02:32:47;;;;;;;6.90;3.90;;;-0.70;1.00;;;;;;5044992;28;20235;-69
2023/04/04 02:35:18;;;;;;;7.07;3.93;;;-0.70;1.00;;;;;;5045163;28;20203;-68
2023/04/04 02:37:46;;;;;;;6.00;3.37;;;-0.80;1.00;;;;;;5035525;28;20227;-68
2023/04/04 02:40:20;;;;;;;7.53;3.60;;;-0.80;1.00;;;;;;5045199;28;20206;-68
2023/04/04 02:42:47;;;;;;;9.47;3.77;;;-0.80;1.00;;;;;;5043543;28;20223;-69
2023/04/04 02:45:14;;;;;;;4.67;3.23;;;-0.80;1.00;;;;;;5045102;28;20206;-69
2023/04/04 02:47:50;;;;;;;6.70;3.70;;;-0.80;1.00;;;;;;5041794;28;20291;-70
2023/04/04 02:50:19;;;;;;;7.40;3.33;;;-0.80;1.00;;;;;;5044664;28;20257;-70
2023/04/04 02:52:57;;;;;;;6.70;4.00;;;-0.80;1.00;;;;;;5041690;28;20534;-70
2023/04/04 02:55:24;;;;;;;8.53;3.67;;;-0.80;1.00;;;;;;5044360;28;20275;-70
2023/04/04 02:57:51;;;;;;;6.50;3.83;;;-0.80;1.00;;;;;;5045816;28;20736;-70
2023/04/04 03:00:19;;;;;;;5.67;4.00;;;-0.80;1.00;;;;;;5041055;28;20205;-71
2023/04/04 03:02:55;;;;;;;8.90;4.03;;;-0.80;1.00;;;;;;5042752;28;20768;-71
2023/04/04 03:05:30;;;;;;;4.50;3.37;;;-0.90;1.00;;;;;;5045427;28;20199;-71
2023/04/04 03:07:58;;;;;;;8.37;4.00;;;-0.90;1.00;;;;;;5046899;28;20230;-70
2023/04/04 03:10:31;;;;;;;14.43;6.10;;;-1.00;1.00;;;;;;5042396;28;20286;-69
2023/04/04 03:12:58;;;;;;;9.93;4.80;;;-1.00;1.00;;;;;;5022598;28;20195;-70
2023/04/04 03:15:27;;;;;;;7.53;4.60;;;-1.10;1.00;;;;;;5045479;28;20203;-69
2023/04/04 03:17:55;;;;;;;9.43;5.10;;;-1.10;1.00;;;;;;5037384;28;20200;-69
2023/04/04 03:20:25;;;;;;;14.47;5.47;;;-1.10;1.00;;;;;;5046527;28;20203;-69
2023/04/04 03:22:53;;;;;;;8.93;5.23;;;-1.10;1.00;;;;;;5026482;28;20224;-69
2023/04/04 03:25:20;;;;;;;7.47;4.27;;;-1.10;1.00;;;;;;5045360;28;20720;-69
2023/04/04 03:27:47;;;;;;;8.20;3.70;;;-1.00;1.00;;;;;;5027142;28;20223;-69
2023/04/04 03:30:21;;;;;;;6.37;3.80;;;-1.10;1.00;;;;;;5042363;28;20215;-70
2023/04/04 03:32:49;;;;;;;5.57;4.03;;;-1.20;1.00;;;;;;5043712;28;20211;-70
2023/04/04 03:35:16;;;;;;;8.47;4.40;;;-1.20;1.00;;;;;;5025573;28;20204;-70
2023/04/04 03:37:43;;;;;;;6.07;3.43;;;-1.20;1.00;;;;;;5044096;28;20614;-70
2023/04/04 03:40:11;;;;;;;6.17;3.90;;;-1.20;1.00;;;;;;5043335;28;20204;-70
2023/04/04 03:42:38;;;;;;;7.47;4.77;;;-1.30;1.00;;;;;;5043718;28;20192;-69
2023/04/04 03:45:09;;;;;;;9.23;4.73;;;-1.30;1.00;;;;;;5038302;28;20184;-71
2023/04/04 03:47:38;;;;;;;13.80;6.97;;;-1.40;1.00;;;;;;5028743;28;20200;-70
2023/04/04 03:50:05;;;;;;;31.53;14.03;;;-1.40;1.00;;;;;;5035319;28;22871;-70
2023/04/04 03:52:41;;;;;;;28.47;11.27;;;-1.40;1.00;;;;;;5042523;28;20659;-71
2023/04/04 03:55:08;;;;;;;40.53;16.53;;;-1.50;1.00;;;;;;5030498;28;20215;-71
2023/04/04 03:57:36;;;;;;;41.67;16.73;;;-1.50;1.00;;;;;;5047364;28;20539;-70
2023/04/04 04:00:09;;;;;;;37.53;15.97;;;-1.50;1.00;;;;;;5049488;28;20282;-70
2023/04/04 04:02:39;;;;;;;29.67;13.20;;;-1.50;1.00;;;;;;5048561;28;20231;-70
2023/04/04 04:05:08;;;;;;;11.87;6.33;;;-1.40;1.00;;;;;;5028284;28;20195;-71
2023/04/04 04:07:35;;;;;;;11.97;5.70;;;-1.40;1.00;;;;;;5048398;28;20679;-70
2023/04/04 04:10:04;;;;;;;14.23;6.00;;;-1.50;1.00;;;;;;5048216;28;20196;-70
2023/04/04 04:12:31;;;;;;;7.27;4.47;;;-1.50;1.00;;;;;;5046177;28;20556;-70
2023/04/04 04:14:59;;;;;;;7.43;3.70;;;-1.60;1.00;;;;;;5048781;28;20751;-70
2023/04/04 04:17:28;;;;;;;6.73;4.23;;;-1.60;1.00;;;;;;5048254;28;20198;-70
2023/04/04 04:19:55;;;;;;;8.97;4.40;;;-1.60;1.00;;;;;;5048044;28;20203;-70
2023/04/04 04:22:23;;;;;;;6.13;4.30;;;-1.60;1.00;;;;;;5044332;28;20199;-71
2023/04/04 04:24:50;;;;;;;7.47;4.50;;;-1.70;1.00;;;;;;5046244;28;20273;-70
2023/04/04 04:27:18;;;;;;;7.73;4.07;;;-1.70;1.00;;;;;;5031879;28;20203;-71
2023/04/04 04:29:45;;;;;;;6.13;3.77;;;-1.80;1.00;;;;;;5046196;28;20200;-71
2023/04/04 04:32:18;;;;;;;6.20;3.70;;;-1.80;1.00;;;;;;5046980;28;20274;-70
2023/04/04 04:34:48;;;;;;;7.60;4.63;;;-1.70;1.00;;;;;;5047492;28;20213;-70
2023/04/04 04:37:19;;;;;;;11.20;5.63;;;-1.70;1.00;;;;;;5046820;28;20207;-70
2023/04/04 04:39:51;;;;;;;30.30;13.20;;;-1.70;1.00;;;;;;5048537;28;20196;-71
2023/04/04 04:42:44;;;;;;;22.13;9.53;;;-1.70;1.00;;;;;;5047242;28;20198;-70
2023/04/04 04:45:13;;;;;;;67.30;26.73;;;-1.70;1.00;;;;;;5046126;28;20319;-70
2023/04/04 04:47:45;;;;;;;33.67;14.47;;;-1.70;1.00;;;;;;5046108;28;20203;-69
2023/04/04 04:50:16;;;;;;;39.20;16.30;;;-1.60;1.00;;;;;;5064816;28;20715;-69
2023/04/04 04:52:50;;;;;;;42.00;17.47;;;-1.60;1.00;;;;;;5030129;28;20882;-69
2023/04/04 04:55:17;;;;;;;27.80;12.93;;;-1.50;1.00;;;;;;5049106;28;20214;-69
2023/04/04 04:57:52;;;;;;;35.90;15.93;;;-1.50;1.00;;;;;;5033532;28;20213;-69
2023/04/04 05:00:23;;;;;;;32.63;12.83;;;-1.40;1.00;;;;;;5049966;28;20192;-69
2023/04/04 05:02:53;;;;;;;50.57;18.90;;;-1.40;1.00;;;;;;5048868;28;20235;-70
2023/04/04 05:05:27;;;;;;;121.57;37.87;;;-1.40;1.00;;;;;;5049015;28;20183;-70
2023/04/04 05:08:01;;;;;;;40.07;16.03;;;-1.20;1.00;;;;;;5047908;28;20191;-70
2023/04/04 05:10:29;;;;;;;20.90;11.37;;;-1.20;1.00;;;;;;5047436;28;20761;-70
2023/04/04 05:12:56;;;;;;;17.37;9.10;;;-1.20;1.00;;;;;;5045318;28;20196;-72
2023/04/04 05:15:28;;;;;;;24.23;11.33;;;-1.20;1.00;;;;;;5035416;28;20203;-69
2023/04/04 05:17:55;;;;;;;16.67;8.60;;;-1.00;1.00;;;;;;5048290;28;20257;-71
2023/04/04 05:20:23;;;;;;;22.70;9.60;;;-0.90;1.00;;;;;;5031236;28;20691;-71
2023/04/04 05:22:51;;;;;;;23.37;11.10;;;-0.80;1.00;;;;;;5041667;28;20808;-70
2023/04/04 05:25:26;;;;;;;15.70;8.63;;;-0.70;1.00;;;;;;5039902;28;20319;-71
2023/04/04 05:27:54;;;;;;;20.03;8.27;;;-0.60;1.00;;;;;;5048320;28;20204;-71
2023/04/04 05:30:22;;;;;;;14.87;8.60;;;-0.40;1.00;;;;;;5040550;28;20577;-69
2023/04/04 05:32:59;;;;;;;22.17;8.77;;;-0.30;1.00;;;;;;5048604;28;20245;-71
2023/04/04 05:35:28;;;;;;;27.70;9.07;;;-0.20;1.00;;;;;;5047561;28;20196;-71
2023/04/04 05:37:57;;;;;;;22.10;7.57;;;-0.10;1.00;;;;;;5047578;28;20572;-70
2023/04/04 05:40:24;;;;;;;14.10;7.23;;;-0.10;1.00;;;;;;5064330;28;20204;-70
2023/04/04 05:43:03;;;;;;;19.57;8.23;;;0.00;1.00;;;;;;5046707;28;20192;-70
2023/04/04 05:45:42;;;;;;;26.43;8.93;;;0.00;1.00;;;;;;5048393;28;20195;-70
2023/04/04 05:48:09;;;;;;;17.13;10.37;;;0.10;1.00;;;;;;5027787;28;20188;-70
2023/04/04 05:50:46;;;;;;;24.17;11.13;;;0.30;1.00;;;;;;5044342;28;20210;-71
2023/04/04 05:53:15;;;;;;;20.37;9.43;;;0.50;1.00;;;;;;5045949;28;20202;-71
2023/04/04 05:55:45;;;;;;;13.47;8.00;;;0.70;1.00;;;;;;5045767;28;20687;-71
2023/04/04 05:58:12;;;;;;;18.67;10.20;;;1.00;1.00;;;;;;5046013;28;20739;-70
2023/04/04 06:00:46;;;;;;;19.03;9.47;;;1.30;1.00;;;;;;5055011;28;20191;-71
2023/04/04 06:03:13;;;;;;;15.90;9.00;;;3.20;1.00;;;;;;5048091;28;20227;-71
2023/04/04 06:05:48;;;;;;;16.43;9.77;;;5.90;1.00;;;;;;5047120;28;20200;-71
2023/04/04 06:08:15;;;;;;;17.43;9.03;;;7.20;1.00;;;;;;5045459;28;20543;-71
2023/04/04 06:10:43;;;;;;;20.13;9.37;;;6.50;1.00;;;;;;5045300;28;20225;-72
2023/04/04 06:13:12;;;;;;;15.80;9.53;;;5.80;1.00;;;;;;5045313;28;20206;-71
2023/04/04 06:15:41;;;;;;;12.47;7.27;;;5.60;1.00;;;;;;5030670;28;20192;-70
2023/04/04 06:18:08;;;;;;;12.77;6.90;;;5.90;1.00;;;;;;5042619;28;20910;-70
2023/04/04 06:20:35;;;;;;;14.57;8.13;;;5.60;1.00;;;;;;5049249;28;20187;-75
2023/04/04 06:23:03;;;;;;;8.67;6.30;;;4.80;1.00;;;;;;5045146;28;20188;-70
2023/04/04 06:25:33;;;;;;;10.27;6.33;;;5.00;1.00;;;;;;5045938;28;20207;-70
2023/04/04 06:28:00;;;;;;;9.00;5.50;;;5.80;1.00;;;;;;5044254;28;20194;-68
2023/04/04 06:30:27;;;;;;;11.10;7.30;;;6.90;1.00;;;;;;5046318;28;20196;-68
2023/04/04 06:32:54;;;;;;;7.53;4.07;;;8.00;1.00;;;;;;5044062;28;20325;-69
2023/04/04 06:35:25;;;;;;;7.73;4.20;;;9.20;1.00;;;;;;5046211;28;20512;-69
2023/04/04 06:37:59;;;;;;;5.23;3.80;;;10.00;1.00;;;;;;5044342;28;20245;-70
2023/04/04 06:40:28;;;;;;;4.40;3.57;;;10.60;1.00;;;;;;5043972;28;20224;-70
2023/04/04 06:42:57;;;;;;;8.77;3.85;;;12.80;1.00;;;;;;5042530;28;20231;-71
2023/04/04 06:45:34;;;;;;;7.07;3.58;;;14.30;1.00;;;;;;5044444;28;20215;-71
2023/04/04 06:48:02;;;;;;;6.20;3.15;;;15.20;1.00;;;;;;5051731;28;20257;-70
2023/04/04 06:50:32;;;;;;;6.30;3.35;;;16.50;1.00;;;;;;5024558;28;20330;-69
2023/04/04 06:53:01;;;;;;;8.27;3.17;;;18.10;1.00;;;;;;5034756;28;21148;-69
2023/04/04 06:55:28;;;;;;;4.68;3.40;;;18.80;1.00;;;;;;5032606;28;20214;-69
2023/04/04 06:57:55;;;;;;;5.30;3.13;;;19.50;1.00;;;;;;5042947;28;20563;-68
2023/04/04 07:00:23;;;;;;;5.43;3.38;;;19.40;1.00;;;;;;5037858;28;20208;-69
2023/04/04 07:02:57;;;;;;;5.13;3.00;;;20.20;1.00;;;;;;5043554;28;20274;-71
2023/04/04 07:05:26;;;;;;;5.97;2.75;;;20.90;1.00;;;;;;5043965;28;20211;-70
2023/04/04 07:07:55;;;;;;;7.85;3.30;;;21.10;1.00;;;;;;5046542;28;21085;-69
2023/04/04 07:10:23;;;;;;;6.50;3.50;;;17.40;1.00;;;;;;5027301;28;20658;-70
2023/04/04 07:12:50;;;;;;;4.85;3.22;;;17.10;1.00;;;;;;5044601;28;20213;-70
2023/04/04 07:15:17;;;;;;;3.63;2.90;;;18.30;1.00;;;;;;5046490;28;20203;-70
2023/04/04 07:17:45;;;;;;;5.95;3.28;;;19.20;1.00;;;;;;5045634;28;20203;-70
2023/04/04 07:20:12;;;;;;;5.40;2.92;;;19.90;1.00;;;;;;5046284;28;20556;-70
2023/04/04 07:22:40;;;;;;;6.15;3.20;;;20.80;1.00;;;;;;5041799;28;20290;-70
2023/04/04 07:25:08;;;;;;;5.38;3.17;;;19.30;1.00;;;;;;5045730;28;20239;-69
2023/04/04 07:27:35;;;;;;;7.35;4.15;;;21.50;1.00;;;;;;5044464;28;20261;-69
2023/04/04 07:30:03;;;;;;;8.50;4.05;;;23.40;1.00;;;;;;5049065;28;20294;-68
2023/04/04 07:32:30;;;;;;;9.57;3.67;;;23.80;1.00;;;;;;5048995;28;20195;-69
2023/04/04 07:34:57;;;;;;;6.20;4.03;;;25.40;1.00;;;;;;5051283;28;20298;-69
2023/04/04 07:37:27;;;;;;;5.65;3.58;;;25.80;1.00;;;;;;5048350;28;20726;-69
2023/04/04 07:39:54;;;;;;;4.63;3.42;;;25.60;1.00;;;;;;5047467;28;20619;-69
2023/04/04 07:42:22;;;;;;;5.28;3.70;;;26.30;1.00;;;;;;5046902;28;20747;-69
2023/04/04 07:44:50;;;;;;;5.22;3.30;;;25.50;1.00;;;;;;5049740;28;20219;-69
2023/04/04 07:47:17;;;;;;;9.50;3.47;;;26.30;1.00;;;;;;5046791;28;20250;-69
2023/04/04 07:49:44;;;;;;;4.60;2.80;;;26.30;1.00;;;;;;5049517;28;20655;-69
2023/04/04 07:52:12;;;;;;;3.25;2.70;;;26.60;1.00;;;;;;5046230;28;20547;-69
2023/04/04 07:54:39;;;;;;;8.25;3.50;;;24.60;1.00;;;;;;5048604;28;20557;-69
2023/04/04 07:57:08;;;;;;;4.28;2.80;;;27.10;1.00;;;;;;5046846;28;20229;-70
2023/04/04 07:59:36;;;;;;;4.25;2.35;;;26.60;1.00;;;;;;5048190;28;20195;-70
2023/04/04 08:02:03;;;;;;;5.40;2.50;;;25.00;1.00;;;;;;5048895;28;20312;-70
2023/04/04 08:04:30;;;;;;;5.57;2.25;;;25.60;1.00;;;;;;5047979;28;20298;-71
2023/04/04 08:06:57;;;;;;;4.13;1.98;;;27.60;1.00;;;;;;5048656;28;20274;-71
2023/04/04 08:09:24;;;;;;;3.00;1.65;;;24.40;1.00;;;;;;5049834;28;20242;-68
2023/04/04 08:11:51;;;;;;;4.47;2.45;;;21.40;1.00;;;;;;5046285;28;20200;-68
2023/04/04 08:14:18;;;;;;;3.67;2.20;;;24.10;1.00;;;;;;5048819;28;20678;-68
2023/04/04 08:16:46;;;;;;;4.88;2.25;;;25.20;1.00;;;;;;5045924;28;20231;-67
2023/04/04 08:19:13;;;;;;;5.88;2.78;;;24.00;1.00;;;;;;5046580;28;20227;-68
2023/04/04 08:21:40;;;;;;;5.43;2.60;;;27.80;1.00;;;;;;5038925;28;20214;-68
2023/04/04 08:24:07;;;;;;;5.55;2.65;;;25.20;1.00;;;;;;5047036;28;20498;-69
2023/04/04 08:26:34;;;;;;;2.25;1.90;;;27.20;1.00;;;;;;5048881;28;20270;-69
2023/04/04 08:29:01;;;;;;;4.22;2.10;;;24.80;1.00;;;;;;5048929;28;20210;-68
2023/04/04 08:31:28;;;;;;;5.25;2.75;;;20.00;1.00;;;;;;5047713;28;20274;-69
2023/04/04 08:33:55;;;;;;;2.72;2.17;;;20.60;1.00;;;;;;5048491;28;20192;-68
2023/04/04 08:36:23;;;;;;;4.97;2.17;;;22.40;1.00;;;;;;5045580;28;20595;-70
2023/04/04 08:38:50;;;;;;;3.28;1.80;;;22.10;1.00;;;;;;5046259;28;20195;-71
2023/04/04 08:41:17;;;;;;;3.30;2.10;;;20.00;1.00;;;;;;5047990;28;20601;-69
2023/04/04 08:43:47;;;;;;;4.25;1.92;;;20.20;1.00;;;;;;5047982;28;20192;-70
2023/04/04 08:46:15;;;;;;;3.58;2.20;;;21.40;1.00;;;;;;5047756;28;20199;-69
2023/04/04 08:48:44;;;;;;;4.97;2.00;;;20.80;1.00;;;;;;5048903;28;20287;-69
2023/04/04 08:51:13;;;;;;;4.13;2.05;;;22.20;1.00;;;;;;5048895;28;20249;-69
2023/04/04 08:53:40;;;;;;;3.30;1.90;;;23.30;1.00;;;;;;5049139;28;20219;-69
2023/04/04 08:56:09;;;;;;;3.65;2.08;;;22.20;1.00;;;;;;5043355;28;20227;-69
2023/04/04 08:58:37;;;;;;;4.68;2.38;;;22.40;1.00;;;;;;5047974;28;20213;-69
2023/04/04 09:01:06;;;;;;;4.07;2.20;;;22.30;1.00;;;;;;5048324;28;20245;-69
2023/04/04 09:03:34;;;;;;;3.35;2.40;;;23.50;1.00;;;;;;5047479;28;20604;-69
2023/04/04 09:06:03;;;;;;;3.20;2.03;;;22.80;1.00;;;;;;5042326;28;21134;-69
2023/04/04 09:08:30;;;;;;;3.78;1.92;;;24.40;1.00;;;;;;5047550;28;20565;-69
2023/04/04 09:11:02;;;;;;;6.00;2.13;;;27.60;1.00;;;;;;5045541;28;20196;-70
2023/04/04 09:13:30;;;;;;;2.83;1.80;;;30.90;1.00;;;;;;5047913;28;20663;-69
2023/04/04 09:15:59;;;;;;;7.70;2.15;;;26.70;1.00;;;;;;5044997;28;20199;-69
2023/04/04 09:18:27;;;;;;;4.47;2.15;;;25.00;1.00;;;;;;5048222;28;20203;-69
2023/04/04 09:20:54;;;;;;;4.82;2.42;;;24.50;1.00;;;;;;5047398;28;20200;-69
2023/04/04 09:23:22;;;;;;;5.57;2.10;;;24.90;1.00;;;;;;5047094;28;20219;-69
2023/04/04 09:25:51;;;;;;;4.55;2.28;;;26.80;1.00;;;;;;5047315;28;20211;-69
2023/04/04 09:28:30;;;;;;;5.70;1.95;;;26.70;1.00;;;;;;5046671;28;20294;-69
2023/04/04 09:31:00;;;;;;;4.30;2.03;;;23.70;1.00;;;;;;5047334;28;20288;-69
2023/04/04 09:33:27;;;;;;;3.40;1.98;;;24.20;1.00;;;;;;5038693;28;20200;-69
2023/04/04 09:35:57;;;;;;;4.72;2.30;;;26.10;1.00;;;;;;5047161;28;20196;-69
2023/04/04 09:38:26;;;;;;;3.65;2.63;;;27.10;1.00;;;;;;5047419;28;20291;-69
2023/04/04 09:40:54;;;;;;;4.95;2.20;;;27.10;1.00;;;;;;5042411;28;20188;-69
2023/04/04 09:43:25;;;;;;;4.10;2.13;;;26.50;1.00;;;;;;5046156;28;20568;-69
2023/04/04 09:45:54;;;;;;;3.28;1.90;;;23.80;1.00;;;;;;5047658;28;20200;-69
2023/04/04 09:48:31;;;;;;;5.63;2.25;;;24.80;1.00;;;;;;5046511;28;20204;-71
2023/04/04 09:50:59;;;;;;;3.47;2.10;;;24.50;1.00;;;;;;5045354;28;20207;-69
2023/04/04 09:53:28;;;;;;;3.85;2.25;;;24.50;1.00;;;;;;5046843;28;20222;-69
2023/04/04 09:55:56;;;;;;;5.75;1.98;;;25.70;1.00;;;;;;5046196;28;20670;-69
2023/04/04 09:58:28;;;;;;;3.35;2.08;;;26.60;1.00;;;;;;5047290;28;20296;-69
2023/04/04 10:00:58;;;;;;;3.65;1.70;;;25.30;1.00;;;;;;5046040;28;20266;-68
2023/04/04 10:03:27;;;;;;;4.65;2.45;;;24.90;1.00;;;;;;5055378;28;20230;-68
2023/04/04 10:06:05;;;;;;;4.32;2.15;;;24.50;1.00;;;;;;5044901;28;20326;-68
2023/04/04 10:08:37;;;;;;;2.95;1.92;;;22.70;1.00;;;;;;5046262;28;20206;-70
2023/04/04 10:11:05;;;;;;;4.68;2.40;;;20.60;1.00;;;;;;5045049;28;20544;-70
2023/04/04 10:13:43;;;;;;;7.00;2.20;;;20.10;1.00;;;;;;5046970;28;20214;-71
2023/04/04 10:16:11;;;;;;;4.32;2.08;;;22.40;1.00;;;;;;5047427;28;20195;-69
2023/04/04 10:18:39;;;;;;;4.38;1.98;;;23.50;1.00;;;;;;5047010;28;20234;-70
2023/04/04 10:21:07;;;;;;;4.25;2.00;;;26.20;1.00;;;;;;5046247;28;20713;-70
2023/04/04 10:23:39;;;;;;;7.55;4.85;;;25.80;1.00;;;;;;5038204;28;20191;-69
2023/04/04 10:26:06;;;;;;;3.85;1.83;;;21.00;1.00;;;;;;5046008;28;20286;-68
2023/04/04 10:28:33;;;;;;;4.50;2.30;;;20.50;1.00;;;;;;5047111;28;20675;-69
2023/04/04 10:31:23;;;;;;;3.22;1.77;;;22.30;1.00;;;;;;5045833;28;20278;-70
2023/04/04 10:34:11;;;;;;;6.72;2.67;;;24.30;1.00;;;;;;5062206;28;20219;-69
2023/04/04 10:37:10;;;;;;;3.90;2.20;;;21.70;1.00;;;;;;5045342;28;20532;-67
2023/04/04 10:39:50;;;;;;;2.70;1.90;;;22.30;1.00;;;;;;5037878;28;20228;-67
2023/04/04 10:42:18;;;;;;;2.95;1.85;;;20.80;1.00;;;;;;5044653;28;20211;-67
2023/04/04 10:44:46;;;;;;;5.50;2.00;;;20.90;1.00;;;;;;5045307;28;20219;-69
2023/04/04 10:47:20;;;;;;;2.63;1.55;;;19.10;1.00;;;;;;5036837;28;20694;-68
2023/04/04 10:49:49;;;;;;;2.60;1.77;;;19.60;1.00;;;;;;5046578;28;20198;-69
2023/04/04 10:52:18;;;;;;;3.10;1.90;;;17.70;1.00;;;;;;5046733;28;20290;-69
2023/04/04 10:54:48;;;;;;;5.63;2.25;;;16.80;1.00;;;;;;5037593;28;20826;-67
2023/04/04 10:57:16;;;;;;;4.63;2.03;;;18.50;1.00;;;;;;5062966;28;20207;-69
2023/04/04 10:59:57;;;;;;;4.93;2.50;;;16.90;1.00;;;;;;5046603;28;20666;-69
2023/04/04 11:02:43;;;;;;;3.33;2.00;;;17.70;1.00;;;;;;5043509;28;20237;-69
2023/04/04 11:05:14;;;;;;;3.95;1.90;;;18.10;1.00;;;;;;5044893;28;20207;-71
2023/04/04 11:07:45;;;;;;;4.70;2.20;;;17.50;1.00;;;;;;5046146;28;20191;-72
2023/04/04 11:10:38;;;;;;;3.80;2.08;;;17.50;1.00;;;;;;5045996;28;20845;-70
2023/04/04 11:13:11;;;;;;;3.13;2.08;;;17.80;1.00;;;;;;5046711;28;20199;-70
2023/04/04 11:15:56;;;;;;;4.30;1.90;;;18.70;1.00;;;;;;5044576;28;20306;-68
2023/04/04 11:18:39;;;;;;;3.63;2.10;;;18.70;1.00;;;;;;5044415;28;20227;-69
2023/04/04 11:21:12;;;;;;;4.47;2.45;;;17.50;1.00;;;;;;5042473;28;20204;-70
2023/04/04 11:23:48;;;;;;;3.28;2.17;;;15.70;1.00;;;;;;5042677;28;20615;-69
2023/04/04 11:26:17;;;;;;;3.60;2.03;;;19.00;1.00;;;;;;5044416;28;20222;-70
2023/04/04 11:28:45;;;;;;;8.95;4.82;;;22.00;1.00;;;;;;5034883;28;20193;-70
2023/04/04 11:31:19;;;;;;;3.58;2.30;;;23.60;1.00;;;;;;5045093;28;20210;-70
2023/04/04 11:34:10;;;;;;;6.43;2.55;;;20.60;1.00;;;;;;5041007;28;20270;-68
2023/04/04 11:36:41;;;;;;;4.55;2.38;;;17.60;1.00;;;;;;5051547;28;20234;-71
2023/04/04 11:39:29;;;;;;;3.97;2.47;;;16.70;1.00;;;;;;5045898;28;20215;-70
2023/04/04 11:42:15;;;;;;;4.38;2.60;;;15.50;1.00;;;;;;5041733;28;20204;-71
2023/04/04 11:44:54;;;;;;;5.93;2.35;;;14.80;1.00;;;;;;5044784;28;20267;-71
2023/04/04 11:47:23;;;;;;;2.85;2.33;;;15.40;1.00;;;;;;5045464;28;20525;-69
2023/04/04 11:49:52;;;;;;;3.95;2.33;;;15.90;1.00;;;;;;5042388;28;20191;-70
2023/04/04 11:52:20;;;;;;;4.68;2.33;;;16.70;1.00;;;;;;5025279;28;20210;-70
2023/04/04 11:54:47;;;;;;;5.45;2.13;;;17.60;1.00;;;;;;5044285;28;20663;-69
2023/04/04 11:57:18;;;;;;;4.97;2.40;;;17.30;1.00;;;;;;5040450;28;20206;-69
2023/04/04 11:59:47;;;;;;;3.22;2.10;;;16.80;1.00;;;;;;5038750;28;20295;-71
2023/04/04 12:02:30;;;;;;;6.20;2.65;;;14.10;1.00;;;;;;5036114;28;20212;-70
2023/04/04 12:04:58;;;;;;;4.65;2.90;;;15.00;1.00;;;;;;5046055;28;20188;-70
2023/04/04 12:07:28;;;;;;;4.07;2.20;;;14.90;1.00;;;;;;5042473;28;20199;-70
2023/04/04 12:09:56;;;;;;;4.40;2.42;;;14.80;1.00;;;;;;5044156;28;20192;-70
2023/04/04 12:12:25;;;;;;;8.55;4.18;;;14.10;1.00;;;;;;5045592;28;20192;-71
2023/04/04 12:14:53;;;;;;;3.22;2.17;;;14.50;1.00;;;;;;5048303;28;20195;-70
2023/04/04 12:17:33;;;;;;;8.63;4.75;;;14.90;1.00;;;;;;5032615;28;20199;-61
2023/04/04 12:20:01;;;;;;;5.18;2.63;;;16.20;1.00;;;;;;5048868;28;20202;-61
2023/04/04 12:22:36;;;;;;;4.18;2.63;;;16.50;1.00;;;;;;5048166;28;20795;-61
2023/04/04 12:25:05;;;;;;;4.15;2.45;;;14.30;1.00;;;;;;5047008;28;20199;-62
2023/04/04 12:27:33;;;;;;;3.55;2.53;;;14.70;1.00;;;;;;5049398;28;20785;-62
2023/04/04 12:30:00;;;;;;;8.57;3.00;;;15.00;1.00;;;;;;5048281;28;20298;-62
2023/04/04 12:32:27;;;;;;;6.15;3.17;;;15.00;1.00;;;;;;5048901;28;20539;-62
2023/04/04 12:34:59;;;;;;;4.07;2.50;;;14.50;1.00;;;;;;5047598;28;20624;-62
2023/04/04 12:37:30;;;;;;;4.15;2.47;;;14.70;1.00;;;;;;5046892;28;20199;-61
2023/04/04 12:39:57;;;;;;;4.05;2.65;;;14.60;1.00;;;;;;5048770;28;21217;-62
2023/04/04 12:42:25;;;;;;;9.00;3.13;;;14.10;1.00;;;;;;5048344;28;20207;-63
2023/04/04 12:44:53;;;;;;;5.38;2.60;;;14.80;1.00;;;;;;5048384;28;20245;-62
2023/04/04 12:47:23;;;;;;;6.38;2.95;;;15.90;1.00;;;;;;5022912;28;20216;-62
2023/04/04 12:49:55;;;;;;;6.90;2.90;;;15.20;1.00;;;;;;5047603;28;20191;-62
2023/04/04 12:52:31;;;;;;;4.50;3.10;;;13.70;1.00;;;;;;5063930;28;20199;-63
2023/04/04 12:55:05;;;;;;;6.30;3.40;;;13.60;1.00;;;;;;5023364;28;20643;-62
2023/04/04 12:57:37;;;;;;;5.83;3.30;;;13.90;1.00;;;;;;5047841;28;20295;-62
2023/04/04 13:00:07;;;;;;;5.23;3.07;;;14.30;1.00;;;;;;5035893;28;20200;-62
2023/04/04 13:02:35;;;;;;;7.50;3.70;;;14.70;1.00;;;;;;5046536;28;20231;-63
2023/04/04 13:05:05;;;;;;;3.40;2.67;;;14.70;1.00;;;;;;5039090;28;20208;-62
2023/04/04 13:07:42;;;;;;;5.10;2.83;;;13.30;1.00;;;;;;5047597;28;20184;-61
2023/04/04 13:10:14;;;;;;;4.70;2.80;;;12.00;1.00;;;;;;5045519;28;20713;-63